< < Back
Terminal Aerodrome Forecast


Current Version              Previous Versions:   1  2  3  4  5  6  7  8  9  

Terminal Aerodrome Forecast

680
FTUS42 KTAE 211200 AAA
TAFVLD
TAF AMD
KVLD 211207Z 2112/2212 00000KT 6SM BR SKC
      TEMPO 2112/2113 4SM BR
     FM211400 06008KT P6SM FEW250=



Latest METAR

328
SAUS70 KWBC 211800 RRM
MTRVLD
METAR KVLD 211753Z 04009G16KT 10SM CLR 21/03 A3033 RMK AO2 SLP279
T02110028 10211 20000 58013


USA.gov is the U.S. government's official web portal to all federal, state and local government web resources and services.